Time;durP1;ratioP1;P1;durP2;ratioP2;P2;SDS_P1;SDS_P2;PMS_P1;PMS_P2;Temp;Humidity;BMP_temperature;BMP_pressure;BME280_temperature;BME280_humidity;BME280_pressure;Samples;Min_cycle;Max_cycle;Signal;HPM_P1;HPM_P2
2020/12/08 00:00:17;;;;;;;18.90;9.98;;;4.50;95.70;;;;;;5053509;28;20037;-80
2020/12/08 00:02:42;;;;;;;17.92;9.95;;;4.50;95.70;;;;;;5055762;28;20037;-79
2020/12/08 00:05:08;;;;;;;;;;;4.50;95.80;;;;;;5044553;28;20030;-79
2020/12/08 00:07:34;;;;;;;17.85;8.80;;;4.50;95.70;;;;;;5051472;28;19905;-78
2020/12/08 00:09:59;;;;;;;;;;;4.50;95.70;;;;;;5055319;28;20040;-79
2020/12/08 00:12:26;;;;;;;17.75;8.88;;;4.40;95.70;;;;;;5053032;28;19905;-79
2020/12/08 00:14:53;;;;;;;14.30;6.35;;;4.40;95.70;;;;;;5054369;28;20040;-78
2020/12/08 00:17:19;;;;;;;9.75;6.63;;;4.50;95.70;;;;;;5050977;28;20056;-78
2020/12/08 00:19:45;;;;;;;;;;;4.40;95.70;;;;;;5052248;28;20013;-79
2020/12/08 00:22:11;;;;;;;12.05;6.53;;;4.40;95.70;;;;;;5041994;28;19947;-79
2020/12/08 00:24:37;;;;;;;13.30;6.85;;;4.40;95.70;;;;;;5039840;28;20029;-79
2020/12/08 00:27:03;;;;;;;11.32;5.93;;;4.40;95.70;;;;;;5042527;28;20028;-79
2020/12/08 00:29:28;;;;;;;;;;;4.40;95.70;;;;;;5049034;28;20033;-79
2020/12/08 00:31:54;;;;;;;11.23;7.10;;;4.40;95.70;;;;;;5048155;28;19928;-78
2020/12/08 00:34:20;;;;;;;;;;;4.40;95.70;;;;;;5050997;28;20040;-80
2020/12/08 00:36:45;;;;;;;11.90;6.25;;;4.30;95.60;;;;;;5048734;28;19956;-78
2020/12/08 00:39:11;;;;;;;;;;;4.30;95.70;;;;;;5042493;28;20069;-77
2020/12/08 00:41:37;;;;;;;8.57;4.85;;;4.30;95.70;;;;;;5054914;28;19909;-78
2020/12/08 00:44:02;;;;;;;;;;;4.30;95.70;;;;;;5050734;28;20089;-79
2020/12/08 00:46:28;;;;;;;8.40;5.40;;;4.40;95.70;;;;;;5050057;28;19936;-77
2020/12/08 00:48:53;;;;;;;;;;;4.30;95.60;;;;;;5047400;28;20536;-79
2020/12/08 00:51:20;;;;;;;10.88;5.82;;;4.30;95.60;;;;;;5051581;28;19921;-79
2020/12/08 00:53:45;;;;;;;8.95;6.30;;;4.30;95.60;;;;;;5047749;28;20080;-79
2020/12/08 00:56:12;;;;;;;;;;;4.30;95.60;;;;;;5051045;28;20052;-79
2020/12/08 00:58:38;;;;;;;12.98;7.28;;;4.30;95.60;;;;;;5050356;28;19924;-78
2020/12/08 01:01:04;;;;;;;;;;;4.30;95.60;;;;;;5048577;28;20112;-78
2020/12/08 01:03:31;;;;;;;12.25;7.63;;;4.40;95.70;;;;;;5047926;28;19909;-79
2020/12/08 01:05:56;;;;;;;11.80;7.68;;;4.40;95.70;;;;;;5049319;28;20486;-79
2020/12/08 01:08:22;;;;;;;;;;;4.40;95.70;;;;;;5050356;28;20045;-79
2020/12/08 01:10:48;;;;;;;13.13;8.35;;;4.40;95.70;;;;;;5051349;28;19936;-79
2020/12/08 01:13:13;;;;;;;;;;;4.40;95.70;;;;;;5054532;28;20023;-79
2020/12/08 01:15:39;;;;;;;17.20;7.85;;;4.40;95.70;;;;;;5044451;28;19971;-79
2020/12/08 01:18:04;;;;;;;;;;;4.30;95.70;;;;;;5043792;28;20027;-78
2020/12/08 01:20:30;;;;;;;12.00;7.63;;;4.30;95.70;;;;;;5055897;28;19909;-80
2020/12/08 01:22:55;;;;;;;;;;;4.40;95.70;;;;;;5056896;28;20041;-79
2020/12/08 01:25:21;;;;;;;7.93;5.28;;;4.30;95.50;;;;;;5055003;28;19889;-79
2020/12/08 01:27:47;;;;;;;;;;;4.30;95.40;;;;;;5054997;28;20097;-79
2020/12/08 01:30:12;;;;;;;11.85;6.32;;;4.30;95.50;;;;;;5054556;28;19908;-79
2020/12/08 01:32:38;;;;;;;;;;;4.30;95.60;;;;;;5059132;28;20052;-78
2020/12/08 01:35:04;;;;;;;11.20;6.47;;;4.30;95.60;;;;;;5060447;28;19956;-80
2020/12/08 01:37:29;;;;;;;;;;;4.30;95.60;;;;;;5059552;28;20025;-80
2020/12/08 01:39:55;;;;;;;10.48;6.10;;;4.30;95.90;;;;;;5061193;28;19956;-79
2020/12/08 01:42:20;;;;;;;;;;;4.40;95.70;;;;;;5060747;28;20029;-79
2020/12/08 01:44:51;;;;;;;10.20;5.55;;;4.40;95.70;;;;;;5060048;28;19900;-80
2020/12/08 01:47:17;;;;;;;9.63;6.10;;;4.40;95.70;;;;;;5059747;28;20405;-79
2020/12/08 01:49:45;;;;;;;10.25;5.57;;;4.40;95.70;;;;;;5060886;28;20032;-80
2020/12/08 01:52:14;;;;;;;10.07;6.10;;;4.40;95.60;;;;;;5060466;28;20022;-79
2020/12/08 01:54:42;;;;;;;12.63;6.75;;;4.40;95.60;;;;;;5061002;28;20045;-80
2020/12/08 01:57:08;;;;;;;11.75;7.20;;;4.30;95.60;;;;;;5060727;28;20029;-79
2020/12/08 01:59:33;;;;;;;;;;;4.40;95.60;;;;;;5060165;28;20044;-80
2020/12/08 02:01:59;;;;;;;10.38;6.43;;;4.30;95.50;;;;;;5060622;28;19980;-79
2020/12/08 02:04:24;;;;;;;;;;;4.30;95.60;;;;;;5060536;28;20040;-79
2020/12/08 02:06:50;;;;;;;11.63;6.38;;;4.30;95.90;;;;;;5060519;28;19976;-79
2020/12/08 02:09:15;;;;;;;;;;;4.30;95.60;;;;;;5060588;28;20056;-79
2020/12/08 02:11:41;;;;;;;11.30;6.07;;;4.30;95.60;;;;;;5060550;28;19905;-79
2020/12/08 02:14:07;;;;;;;;;;;4.30;95.60;;;;;;5061494;28;20053;-79
2020/12/08 02:16:32;;;;;;;11.15;7.10;;;4.20;95.60;;;;;;5060907;28;19959;-79
2020/12/08 02:18:58;;;;;;;;;;;4.30;95.60;;;;;;5060676;28;20025;-80
2020/12/08 02:21:32;;;;;;;6.28;4.15;;;4.30;95.70;;;;;;5061260;28;19900;-79
2020/12/08 02:23:59;;;;;;;5.78;3.85;;;4.30;95.50;;;;;;5060212;28;20038;-79
2020/12/08 02:26:25;;;;;;;4.70;3.08;;;4.20;95.40;;;;;;5059855;28;20019;-79
2020/12/08 02:28:51;;;;;;;;;;;4.10;95.20;;;;;;5060078;28;20088;-79
2020/12/08 02:31:16;;;;;;;6.72;4.90;;;4.10;95.10;;;;;;5051506;28;19913;-79
2020/12/08 02:33:42;;;;;;;;;;;4.10;95.30;;;;;;5054107;28;20025;-79
2020/12/08 02:36:08;;;;;;;7.60;5.30;;;4.10;95.30;;;;;;5055383;28;19897;-79
2020/12/08 02:38:34;;;;;;;8.55;5.70;;;4.10;95.30;;;;;;5058867;28;20018;-79
2020/12/08 02:41:00;;;;;;;;;;;4.10;95.40;;;;;;5058945;28;20012;-79
2020/12/08 02:43:25;;;;;;;10.68;6.72;;;4.20;95.40;;;;;;5037995;28;19995;-78
2020/12/08 02:45:51;;;;;;;;;;;4.20;95.40;;;;;;5034252;28;20033;-78
2020/12/08 02:48:17;;;;;;;8.02;5.28;;;4.10;95.40;;;;;;5041878;28;19896;-79
2020/12/08 02:50:43;;;;;;;9.85;4.70;;;4.10;95.40;;;;;;5057382;28;20009;-79
2020/12/08 02:53:08;;;;;;;;;;;4.10;95.50;;;;;;5057053;28;20109;-79
2020/12/08 02:55:35;;;;;;;7.32;4.90;;;4.20;95.40;;;;;;5057328;28;19913;-79
2020/12/08 02:58:00;;;;;;;8.10;5.13;;;4.10;95.40;;;;;;5056301;28;20044;-79
2020/12/08 03:00:26;;;;;;;;;;;4.10;95.40;;;;;;5056361;28;20029;-80
2020/12/08 03:02:52;;;;;;;5.93;3.70;;;4.10;95.40;;;;;;5056416;28;19889;-79
2020/12/08 03:05:17;;;;;;;;;;;4.10;95.30;;;;;;5046009;28;20037;-78
2020/12/08 03:07:43;;;;;;;7.75;4.65;;;4.10;95.30;;;;;;5041345;28;19916;-80
2020/12/08 03:10:09;;;;;;;6.93;5.15;;;4.10;95.30;;;;;;5054712;28;20025;-78
2020/12/08 03:12:35;;;;;;;;;;;4.10;95.30;;;;;;5056714;28;20013;-79
2020/12/08 03:15:00;;;;;;;7.30;5.60;;;4.00;95.30;;;;;;5056397;28;19932;-79
2020/12/08 03:20:02;;;;;;;9.68;6.88;;;4.00;95.30;;;;;;5500105;22;19922;-79
2020/12/08 03:22:27;;;;;;;;;;;4.00;95.30;;;;;;5037804;28;20085;-78
2020/12/08 03:24:53;;;;;;;8.82;6.90;;;4.00;95.40;;;;;;5036091;28;19912;-79
2020/12/08 03:27:19;;;;;;;;;;;4.00;95.40;;;;;;5038669;28;20096;-79
2020/12/08 03:29:45;;;;;;;11.18;7.57;;;4.10;95.40;;;;;;5036426;28;19901;-79
2020/12/08 03:32:11;;;;;;;;;;;4.10;95.50;;;;;;5037603;28;20045;-79
2020/12/08 03:34:37;;;;;;;10.13;7.80;;;4.00;95.40;;;;;;5036519;28;19917;-79
2020/12/08 03:37:03;;;;;;;11.13;7.00;;;4.00;95.40;;;;;;5037795;28;20018;-79
2020/12/08 03:39:28;;;;;;;;;;;4.00;95.40;;;;;;5037336;28;20073;-79
2020/12/08 03:42:07;;;;;;;9.95;7.57;;;4.00;95.40;;;;;;5037775;28;19889;-79
2020/12/08 03:44:33;;;;;;;10.00;7.43;;;4.10;95.40;;;;;;5032302;28;20037;-79
2020/12/08 03:47:02;;;;;;;15.75;9.35;;;4.00;95.40;;;;;;5036766;28;20022;-79
2020/12/08 03:49:27;;;;;;;11.07;7.65;;;4.10;95.50;;;;;;5036724;28;20077;-79
2020/12/08 03:51:53;;;;;;;;;;;4.00;95.50;;;;;;5037195;28;20045;-79
2020/12/08 03:54:19;;;;;;;13.38;8.63;;;4.10;95.50;;;;;;5036135;28;19906;-79
2020/12/08 03:56:45;;;;;;;;;;;4.10;95.50;;;;;;5037489;28;20034;-79
2020/12/08 03:59:16;;;;;;;13.98;8.05;;;4.10;95.50;;;;;;5036539;28;19901;-79
2020/12/08 04:01:43;;;;;;;12.63;7.05;;;4.10;95.60;;;;;;5037860;28;20010;-78
2020/12/08 04:04:09;;;;;;;12.52;7.53;;;4.10;95.60;;;;;;5037598;28;20049;-79
2020/12/08 04:06:35;;;;;;;;;;;4.10;95.60;;;;;;5038406;28;20014;-79
2020/12/08 04:09:00;;;;;;;10.10;7.00;;;4.10;95.60;;;;;;5035550;28;19890;-79
2020/12/08 04:11:26;;;;;;;;;;;4.10;95.60;;;;;;5036408;28;20021;-79
2020/12/08 04:13:52;;;;;;;13.25;9.10;;;4.10;95.60;;;;;;5036432;28;19893;-78
2020/12/08 04:16:17;;;;;;;;;;;4.00;95.50;;;;;;5038139;28;20038;-79
2020/12/08 04:18:43;;;;;;;18.25;8.75;;;4.10;95.50;;;;;;5035359;28;19909;-79
2020/12/08 04:21:09;;;;;;;;;;;4.10;95.60;;;;;;5031780;28;20069;-79
2020/12/08 04:23:35;;;;;;;13.75;8.65;;;4.00;95.60;;;;;;5033901;28;19913;-79
2020/12/08 04:26:00;;;;;;;;;;;4.10;95.60;;;;;;5035789;28;20033;-78
2020/12/08 04:28:27;;;;;;;12.27;8.40;;;4.10;95.70;;;;;;5037559;28;19900;-80
2020/12/08 04:30:52;;;;;;;14.18;9.85;;;4.10;95.70;;;;;;5037123;28;20044;-78
2020/12/08 04:33:18;;;;;;;;;;;4.20;95.70;;;;;;5038572;28;20018;-80
2020/12/08 04:35:44;;;;;;;14.25;9.43;;;4.20;95.70;;;;;;5037527;28;19900;-78
2020/12/08 04:40:48;;;;;;;22.05;11.43;;;4.20;95.80;;;;;;5115247;22;19905;-80
2020/12/08 04:43:15;;;;;;;13.60;10.38;;;4.20;95.80;;;;;;5035921;28;20034;-80
2020/12/08 04:45:41;;;;;;;15.40;11.13;;;4.20;95.70;;;;;;5032950;28;20392;-80
2020/12/08 04:48:06;;;;;;;;;;;4.20;95.60;;;;;;5035146;28;20029;-80
2020/12/08 04:50:33;;;;;;;27.80;20.65;;;4.20;95.60;;;;;;5033815;28;19944;-79
2020/12/08 04:52:59;;;;;;;26.05;17.67;;;4.10;95.60;;;;;;5016460;28;20040;-79
2020/12/08 04:55:25;;;;;;;;;;;4.10;95.60;;;;;;5021232;28;20045;-80
2020/12/08 04:57:53;;;;;;;23.88;13.98;;;4.10;95.60;;;;;;5022254;28;19936;-79
2020/12/08 05:00:19;;;;;;;21.95;15.70;;;4.10;95.60;;;;;;5031980;28;20022;-80
2020/12/08 05:02:45;;;;;;;;;;;4.10;95.60;;;;;;5036909;28;20089;-80
2020/12/08 05:05:11;;;;;;;22.40;13.47;;;4.00;95.50;;;;;;5035557;28;19981;-79
2020/12/08 05:07:37;;;;;;;;;;;4.00;95.50;;;;;;5037254;28;20261;-79
2020/12/08 05:10:03;;;;;;;17.60;12.38;;;4.00;95.60;;;;;;5037752;28;19916;-79
2020/12/08 05:12:28;;;;;;;;;;;4.00;95.60;;;;;;5037566;28;20010;-80
2020/12/08 05:14:54;;;;;;;16.55;12.00;;;3.80;95.50;;;;;;5032934;28;19956;-80
2020/12/08 05:17:23;;;;;;;;;;;3.90;95.50;;;;;;5028835;28;20049;-79
2020/12/08 05:20:01;;;;;;;17.70;12.13;;;3.90;95.60;;;;;;5036141;28;19910;-79
2020/12/08 05:22:27;;;;;;;16.60;11.20;;;3.90;95.60;;;;;;5035130;28;20026;-79
2020/12/08 05:24:53;;;;;;;;;;;3.90;95.50;;;;;;5037097;28;20026;-80
2020/12/08 05:27:19;;;;;;;12.05;9.05;;;3.80;95.40;;;;;;5035288;28;19945;-80
2020/12/08 05:29:45;;;;;;;16.25;11.20;;;3.80;95.50;;;;;;5029709;28;20034;-79
2020/12/08 05:32:29;;;;;;;;;;;3.80;95.40;;;;;;5027867;28;20390;-80
2020/12/08 05:34:56;;;;;;;13.23;9.35;;;3.70;95.40;;;;;;5042736;28;19920;-80
2020/12/08 05:37:22;;;;;;;12.07;8.65;;;3.70;95.40;;;;;;5028214;28;20026;-80
2020/12/08 05:39:48;;;;;;;15.23;9.52;;;3.70;95.40;;;;;;5029910;28;20105;-79
2020/12/08 05:42:20;;;;;;;14.48;10.20;;;3.70;95.50;;;;;;5028875;28;20034;-80
2020/12/08 05:44:48;;;;;;;12.63;9.38;;;3.70;95.50;;;;;;5029375;28;20029;-80
2020/12/08 05:47:21;;;;;;;14.82;8.45;;;3.70;95.50;;;;;;5029759;28;20204;-80
2020/12/08 05:50:09;;;;;;;11.75;8.98;;;3.70;95.50;;;;;;5027647;28;20026;-80
2020/12/08 05:52:36;;;;;;;17.25;11.23;;;3.70;95.50;;;;;;5028920;28;20473;-80
2020/12/08 05:55:13;;;;;;;14.88;11.15;;;3.70;95.50;;;;;;5029420;28;20029;-80
2020/12/08 05:57:40;;;;;;;14.57;10.07;;;3.70;95.50;;;;;;5029246;28;20106;-79
2020/12/08 06:00:22;;;;;;;14.10;10.25;;;3.70;95.50;;;;;;5029385;28;20022;-78
2020/12/08 06:02:48;;;;;;;8.75;6.72;;;3.70;95.40;;;;;;5026677;28;20048;-78
2020/12/08 06:05:30;;;;;;;11.25;8.00;;;3.60;95.30;;;;;;5038483;28;20065;-79
2020/12/08 06:08:11;;;;;;;8.55;6.68;;;3.60;95.30;;;;;;5032275;28;20018;-79
2020/12/08 06:10:44;;;;;;;9.90;6.35;;;3.60;95.20;;;;;;5037128;28;20041;-80
2020/12/08 06:13:10;;;;;;;10.90;6.53;;;3.50;95.10;;;;;;5035811;28;20041;-80
2020/12/08 06:15:37;;;;;;;;;;;3.60;95.20;;;;;;5036308;28;20048;-80
2020/12/08 06:18:03;;;;;;;9.32;6.40;;;3.60;95.10;;;;;;5041406;28;19985;-80
2020/12/08 06:20:28;;;;;;;;;;;3.50;95.10;;;;;;5029311;28;20037;-79
2020/12/08 06:22:58;;;;;;;11.75;7.57;;;3.50;95.20;;;;;;5022207;28;19955;-78
2020/12/08 06:25:25;;;;;;;9.90;7.30;;;3.60;95.20;;;;;;5029461;28;20014;-80
2020/12/08 06:27:55;;;;;;;9.73;7.20;;;3.60;95.20;;;;;;5039621;28;20013;-79
2020/12/08 06:30:21;;;;;;;12.50;8.45;;;3.50;95.10;;;;;;5039287;28;20034;-80
2020/12/08 06:32:47;;;;;;;13.45;8.77;;;3.50;95.20;;;;;;5039158;28;20040;-79
2020/12/08 06:35:15;;;;;;;14.68;8.65;;;3.50;95.20;;;;;;5039989;28;20041;-80
2020/12/08 06:37:50;;;;;;;12.57;8.55;;;3.50;95.20;;;;;;5037938;28;20030;-79
2020/12/08 06:40:18;;;;;;;16.15;9.48;;;3.50;95.20;;;;;;5037828;28;20062;-80
2020/12/08 06:42:48;;;;;;;14.88;10.68;;;3.60;95.30;;;;;;5037784;28;20018;-80
2020/12/08 06:45:18;;;;;;;15.82;11.07;;;3.60;95.30;;;;;;5036084;28;20029;-79
2020/12/08 06:47:46;;;;;;;18.55;11.65;;;3.50;95.30;;;;;;5040227;28;20014;-80
2020/12/08 06:50:29;;;;;;;17.50;12.65;;;3.60;95.40;;;;;;5041525;28;20022;-80
2020/12/08 06:52:58;;;;;;;26.42;17.17;;;3.60;95.40;;;;;;5041257;28;20052;-79
2020/12/08 06:55:25;;;;;;;17.13;11.95;;;3.60;95.40;;;;;;5040626;28;20025;-79
2020/12/08 06:57:52;;;;;;;20.27;13.02;;;3.50;95.40;;;;;;5040661;28;20098;-81
2020/12/08 07:00:18;;;;;;;13.70;9.88;;;3.50;95.40;;;;;;5040158;28;20082;-80
2020/12/08 07:02:48;;;;;;;;;;;3.50;95.40;;;;;;5040101;28;20018;-80
2020/12/08 07:05:26;;;;;;;11.40;8.57;;;3.50;95.40;;;;;;5040167;28;19964;-78
2020/12/08 07:07:52;;;;;;;14.20;9.82;;;3.60;95.50;;;;;;5040026;28;20380;-80
2020/12/08 07:10:20;;;;;;;22.63;13.55;;;3.60;95.50;;;;;;5040233;28;20045;-80
2020/12/08 07:12:51;;;;;;;15.43;10.95;;;3.60;95.50;;;;;;5040310;28;20013;-80
2020/12/08 07:15:25;;;;;;;20.63;12.73;;;3.70;95.60;;;;;;5040221;28;20065;-80
2020/12/08 07:17:58;;;;;;;13.40;9.45;;;3.60;95.50;;;;;;5040229;28;20010;-80
2020/12/08 07:20:25;;;;;;;10.25;8.20;;;3.70;95.50;;;;;;5033434;28;20512;-79
2020/12/08 07:22:52;;;;;;;12.65;8.48;;;3.70;95.40;;;;;;5030484;28;20023;-80
2020/12/08 07:25:18;;;;;;;12.95;8.00;;;3.70;95.40;;;;;;5037648;28;20040;-79
2020/12/08 07:27:52;;;;;;;12.38;8.30;;;3.70;95.40;;;;;;5034275;28;20017;-80
2020/12/08 07:30:23;;;;;;;16.25;8.80;;;3.60;95.20;;;;;;5036633;28;20106;-80
2020/12/08 07:32:50;;;;;;;14.80;10.02;;;3.70;95.30;;;;;;5037580;28;20041;-79
2020/12/08 07:35:22;;;;;;;17.95;11.57;;;3.70;95.30;;;;;;5033875;28;20030;-80
2020/12/08 07:37:48;;;;;;;17.75;11.52;;;3.80;95.40;;;;;;5035070;28;20030;-80
2020/12/08 07:40:14;;;;;;;26.95;16.45;;;3.80;95.30;;;;;;5034653;28;20077;-79
2020/12/08 07:42:50;;;;;;;26.10;16.33;;;3.80;95.40;;;;;;5032764;28;20029;-80
2020/12/08 07:45:21;;;;;;;23.10;15.23;;;3.90;95.40;;;;;;5036669;28;20035;-79
2020/12/08 07:47:52;;;;;;;20.27;12.55;;;3.90;95.30;;;;;;5036120;28;20034;-79
2020/12/08 07:50:28;;;;;;;17.75;12.02;;;3.90;95.30;;;;;;5037479;28;20101;-79
2020/12/08 07:52:59;;;;;;;12.88;8.98;;;3.90;95.30;;;;;;5036501;28;20030;-79
2020/12/08 07:55:29;;;;;;;12.38;9.55;;;4.00;95.10;;;;;;5035490;28;20049;-78
2020/12/08 07:57:55;;;;;;;30.23;20.33;;;3.90;95.10;;;;;;5035415;28;20081;-78
2020/12/08 08:00:21;;;;;;;13.38;10.05;;;4.00;95.20;;;;;;5033166;28;20056;-80
2020/12/08 08:02:47;;;;;;;;;;;3.90;94.90;;;;;;5032644;28;20026;-79
2020/12/08 08:05:13;;;;;;;20.55;14.05;;;4.00;95.00;;;;;;5020794;28;19912;-79
2020/12/08 08:07:39;;;;;;;14.77;11.13;;;4.00;95.00;;;;;;5021612;28;20033;-79
2020/12/08 08:10:04;;;;;;;;;;;4.00;95.00;;;;;;5023665;28;20037;-80
2020/12/08 08:12:30;;;;;;;19.40;13.27;;;4.00;94.90;;;;;;5032036;28;19937;-78
2020/12/08 08:14:55;;;;;;;;;;;4.10;95.00;;;;;;5035153;28;20018;-79
2020/12/08 08:17:22;;;;;;;21.15;14.25;;;4.10;95.10;;;;;;5032147;28;19913;-79
2020/12/08 08:19:48;;;;;;;9.77;8.07;;;4.10;95.20;;;;;;5031810;28;20101;-79
2020/12/08 08:22:13;;;;;;;;;;;4.30;95.00;;;;;;5032192;28;19998;-76
2020/12/08 08:24:39;;;;;;;17.48;11.35;;;4.20;95.00;;;;;;5023444;28;19970;-79
2020/12/08 08:27:04;;;;;;;;;;;4.20;94.70;;;;;;5022289;28;20033;-79
2020/12/08 08:29:30;;;;;;;11.18;9.35;;;4.20;94.60;;;;;;5028639;28;19905;-79
2020/12/08 08:31:56;;;;;;;;;;;4.20;94.40;;;;;;5027095;28;20037;-79
2020/12/08 08:34:22;;;;;;;6.38;3.88;;;4.20;94.10;;;;;;5028199;28;19916;-79
2020/12/08 08:36:51;;;;;;;;;;;4.20;94.00;;;;;;5030003;28;20033;-80
2020/12/08 08:39:17;;;;;;;4.72;3.63;;;4.20;93.90;;;;;;5013686;28;19921;-78
2020/12/08 08:41:43;;;;;;;;;;;4.30;93.90;;;;;;5024194;28;20116;-80
2020/12/08 08:44:09;;;;;;;15.73;9.07;;;4.30;93.80;;;;;;5030005;28;19911;-80
2020/12/08 08:46:34;;;;;;;;;;;4.40;93.30;;;;;;5027803;28;20036;-80
2020/12/08 08:49:00;;;;;;;9.02;4.85;;;4.40;93.10;;;;;;5025823;28;19929;-79
2020/12/08 08:51:25;;;;;;;5.45;3.65;;;4.40;93.40;;;;;;5025650;28;20037;-80
2020/12/08 08:53:51;;;;;;;;;;;4.40;93.60;;;;;;5026805;28;20033;-79
2020/12/08 08:56:19;;;;;;;7.30;6.05;;;4.40;93.50;;;;;;5025706;28;19906;-78
2020/12/08 08:58:45;;;;;;;6.80;5.30;;;4.50;93.30;;;;;;5026979;28;20038;-79
2020/12/08 09:01:10;;;;;;;;;;;4.50;93.60;;;;;;5027289;28;20029;-79
2020/12/08 09:03:36;;;;;;;7.15;6.43;;;4.60;93.70;;;;;;5027280;28;19920;-80
2020/12/08 09:06:01;;;;;;;;;;;4.70;93.60;;;;;;5026206;28;20040;-79
2020/12/08 09:08:27;;;;;;;4.72;3.67;;;4.80;93.30;;;;;;5026708;28;19906;-80
2020/12/08 09:10:52;;;;;;;;;;;4.80;93.40;;;;;;5022039;28;20406;-80
2020/12/08 09:13:18;;;;;;;7.43;5.90;;;4.90;93.40;;;;;;5022469;28;19941;-81
2020/12/08 09:15:45;;;;;;;;;;;4.90;93.50;;;;;;5022263;28;20030;-80
2020/12/08 09:18:11;;;;;;;24.67;13.00;;;5.00;93.30;;;;;;5023501;28;19931;-79
2020/12/08 09:20:36;;;;;;;;;;;5.00;93.20;;;;;;5023301;28;20296;-79
2020/12/08 09:23:02;;;;;;;29.92;18.42;;;5.00;93.00;;;;;;5021823;28;19910;-79
2020/12/08 09:25:28;;;;;;;;;;;5.10;93.20;;;;;;5020955;28;20030;-79
2020/12/08 09:27:55;;;;;;;24.77;18.92;;;5.10;93.20;;;;;;5024366;28;19941;-80
2020/12/08 09:30:22;;;;;;;16.92;14.43;;;5.10;93.20;;;;;;5013919;28;20548;-79
2020/12/08 09:32:48;;;;;;;10.18;4.07;;;5.00;93.20;;;;;;5021076;28;20037;-79
2020/12/08 09:35:15;;;;;;;5.18;3.50;;;5.00;92.80;;;;;;5022441;28;20037;-79
2020/12/08 09:37:41;;;;;;;6.20;3.85;;;5.10;93.00;;;;;;5026198;28;20097;-78
2020/12/08 09:40:07;;;;;;;8.52;6.20;;;5.00;92.90;;;;;;5026843;28;20081;-77
2020/12/08 09:42:32;;;;;;;;;;;4.90;92.70;;;;;;5018432;28;20032;-78
2020/12/08 09:44:58;;;;;;;8.93;5.40;;;4.90;92.80;;;;;;5017885;28;19906;-78
2020/12/08 09:47:24;;;;;;;;;;;5.00;93.30;;;;;;5016521;28;20037;-78
2020/12/08 09:49:49;;;;;;;9.25;6.75;;;5.00;93.40;;;;;;5012946;28;20798;-78
2020/12/08 09:52:15;;;;;;;;;;;4.90;93.40;;;;;;5016494;28;20061;-78
2020/12/08 09:54:41;;;;;;;17.35;11.35;;;5.10;93.30;;;;;;5018078;28;20209;-78
2020/12/08 09:57:06;;;;;;;;;;;4.90;92.90;;;;;;5024469;28;20402;-78
2020/12/08 09:59:32;;;;;;;7.70;6.07;;;5.00;93.10;;;;;;5017658;28;20320;-79
2020/12/08 10:02:01;;;;;;;;;;;4.80;93.10;;;;;;5022348;28;20018;-79
2020/12/08 10:04:27;;;;;;;19.05;11.68;;;4.80;93.30;;;;;;5028956;28;19913;-80
2020/12/08 10:06:53;;;;;;;;;;;4.80;93.40;;;;;;5028005;28;20033;-79
2020/12/08 10:09:18;;;;;;;16.52;11.20;;;4.80;93.50;;;;;;5027917;28;19956;-79
2020/12/08 10:11:44;;;;;;;;;;;4.80;93.70;;;;;;5026297;28;20042;-78
2020/12/08 10:14:09;;;;;;;24.10;15.20;;;4.80;93.80;;;;;;5024426;28;19905;-79
2020/12/08 10:16:35;;;;;;;;;;;4.80;93.60;;;;;;5021864;28;20026;-79
2020/12/08 10:19:01;;;;;;;22.73;18.17;;;4.80;93.60;;;;;;5020633;28;20381;-78
2020/12/08 10:21:27;;;;;;;;;;;4.70;93.60;;;;;;5015905;28;20030;-79
2020/12/08 10:23:52;;;;;;;14.68;11.40;;;4.70;93.90;;;;;;5017886;28;19971;-78
2020/12/08 10:26:18;;;;;;;;;;;4.80;94.00;;;;;;4999759;28;20082;-78
2020/12/08 10:28:44;;;;;;;49.65;44.17;;;4.80;94.00;;;;;;5000260;28;20554;-79
2020/12/08 10:31:10;;;;;;;;;;;4.80;94.20;;;;;;5000530;28;20042;-77
2020/12/08 10:33:35;;;;;;;21.33;14.43;;;4.80;94.10;;;;;;5000059;28;20373;-79
2020/12/08 10:36:01;;;;;;;;;;;4.80;94.20;;;;;;5013637;28;20534;-79
2020/12/08 10:38:27;;;;;;;22.15;14.45;;;4.80;94.30;;;;;;4997236;28;20366;-77
2020/12/08 10:40:53;;;;;;;29.92;19.60;;;4.80;94.20;;;;;;5006247;28;20060;-77
2020/12/08 10:43:19;;;;;;;;;;;4.90;94.20;;;;;;5001405;28;20077;-80
2020/12/08 10:45:48;;;;;;;12.80;9.85;;;4.90;94.20;;;;;;5000319;28;19909;-77
2020/12/08 10:48:15;;;;;;;18.30;13.23;;;4.80;93.90;;;;;;4998176;28;20034;-78
2020/12/08 10:50:40;;;;;;;;;;;4.80;94.10;;;;;;5005367;28;20030;-77
2020/12/08 10:53:07;;;;;;;22.55;15.85;;;4.80;93.70;;;;;;4997341;28;19912;-77
2020/12/08 10:55:33;;;;;;;22.25;14.95;;;4.80;93.90;;;;;;4994813;28;20037;-79
2020/12/08 10:57:58;;;;;;;;;;;4.90;93.90;;;;;;4998658;28;20054;-78
2020/12/08 11:00:24;;;;;;;20.40;13.73;;;4.90;94.00;;;;;;5000034;28;19914;-77
2020/12/08 11:02:50;;;;;;;;;;;5.00;94.00;;;;;;4996684;28;20038;-78
2020/12/08 11:05:15;;;;;;;13.48;9.80;;;5.00;93.80;;;;;;4995595;28;20449;-78
2020/12/08 11:07:41;;;;;;;;;;;5.00;93.80;;;;;;5001473;28;20498;-78
2020/12/08 11:10:07;;;;;;;12.90;7.90;;;5.00;93.60;;;;;;5003092;28;19910;-77
2020/12/08 11:12:32;;;;;;;;;;;5.10;93.70;;;;;;4997525;28;20041;-77
2020/12/08 11:14:58;;;;;;;11.55;5.55;;;5.10;93.70;;;;;;5001037;28;20355;-78
2020/12/08 11:17:23;;;;;;;;;;;5.10;93.50;;;;;;5002283;28;20022;-77
2020/12/08 11:19:49;;;;;;;11.60;7.57;;;5.10;93.50;;;;;;4996571;28;20001;-76
2020/12/08 11:22:15;;;;;;;;;;;5.20;93.50;;;;;;4992575;28;20031;-77
2020/12/08 11:24:41;;;;;;;8.50;6.55;;;5.20;93.60;;;;;;5012141;28;19916;-77
2020/12/08 11:27:15;;;;;;;;;;;5.10;93.30;;;;;;4993778;28;20018;-77
2020/12/08 11:29:42;;;;;;;8.15;6.55;;;5.20;93.10;;;;;;4992714;28;19910;-76
2020/12/08 11:32:08;;;;;;;16.15;10.02;;;5.20;93.10;;;;;;4993693;28;20042;-77
2020/12/08 11:34:33;;;;;;;;;;;5.10;93.20;;;;;;4996583;28;20459;-77
2020/12/08 11:36:59;;;;;;;16.80;8.95;;;5.10;93.20;;;;;;4992088;28;19906;-76
2020/12/08 11:39:24;;;;;;;;;;;5.10;93.10;;;;;;4993652;28;20046;-78
2020/12/08 11:41:50;;;;;;;4.95;3.55;;;5.20;92.90;;;;;;4997833;28;19933;-77
2020/12/08 11:44:16;;;;;;;;;;;5.20;92.80;;;;;;4987763;28;20053;-77
2020/12/08 11:46:41;;;;;;;18.75;13.27;;;5.20;93.10;;;;;;5014717;28;19909;-78
2020/12/08 11:49:07;;;;;;;;;;;5.20;92.80;;;;;;5013202;28;20030;-77
2020/12/08 11:51:33;;;;;;;15.05;9.30;;;5.20;92.70;;;;;;5014323;28;19917;-77
2020/12/08 11:53:59;;;;;;;11.30;7.53;;;5.20;92.40;;;;;;5011840;28;20034;-76
2020/12/08 11:56:26;;;;;;;17.40;9.15;;;5.20;92.50;;;;;;5012398;28;20052;-76
2020/12/08 11:58:52;;;;;;;21.27;11.50;;;5.20;92.50;;;;;;5012076;28;20017;-77
2020/12/08 12:01:18;;;;;;;24.80;13.25;;;5.20;92.60;;;;;;5012625;28;20052;-77
2020/12/08 12:03:44;;;;;;;;;;;5.20;92.40;;;;;;5011166;28;20029;-77
2020/12/08 12:06:12;;;;;;;11.82;7.80;;;5.20;92.40;;;;;;5013731;28;19906;-78
2020/12/08 12:08:41;;;;;;;13.70;9.60;;;5.20;92.20;;;;;;5010214;28;20129;-77
2020/12/08 12:11:07;;;;;;;13.90;9.38;;;5.10;92.30;;;;;;5010649;28;20038;-77
2020/12/08 12:13:33;;;;;;;10.20;7.35;;;5.10;92.20;;;;;;5010706;28;20038;-76
2020/12/08 12:15:58;;;;;;;;;;;5.10;92.30;;;;;;5012924;28;20068;-77
2020/12/08 12:18:24;;;;;;;22.45;11.57;;;5.10;92.50;;;;;;5011548;28;19928;-76
2020/12/08 12:20:50;;;;;;;;;;;5.10;92.20;;;;;;5012973;28;20095;-77
2020/12/08 12:23:15;;;;;;;22.83;15.80;;;5.00;92.40;;;;;;5011366;28;19909;-77
2020/12/08 12:25:41;;;;;;;;;;;5.00;92.30;;;;;;5010387;28;20033;-77
2020/12/08 12:28:06;;;;;;;11.32;8.25;;;5.00;92.40;;;;;;5011990;28;19909;-77
2020/12/08 12:30:32;;;;;;;;;;;4.90;92.50;;;;;;5009824;28;20069;-77
2020/12/08 12:32:57;;;;;;;12.45;9.13;;;5.00;92.80;;;;;;5009671;28;19905;-77
2020/12/08 12:35:23;;;;;;;;;;;5.00;92.70;;;;;;5012803;28;20056;-77
2020/12/08 12:37:48;;;;;;;13.40;9.32;;;5.00;92.60;;;;;;5009839;28;19910;-76
2020/12/08 12:40:14;;;;;;;;;;;4.90;92.90;;;;;;5011056;28;20123;-77
2020/12/08 12:42:40;;;;;;;11.32;6.97;;;4.90;92.70;;;;;;5009889;28;20372;-77
2020/12/08 12:45:05;;;;;;;;;;;5.00;92.80;;;;;;5012298;28;20030;-77
2020/12/08 12:47:31;;;;;;;15.82;10.45;;;5.00;92.80;;;;;;5010193;28;19909;-76
2020/12/08 12:49:56;;;;;;;;;;;5.00;92.70;;;;;;4999320;28;20060;-77
2020/12/08 12:52:22;;;;;;;12.23;8.27;;;4.90;92.80;;;;;;5005264;28;20333;-77
2020/12/08 12:54:48;;;;;;;10.38;8.18;;;4.90;92.80;;;;;;5004186;28;20659;-77
2020/12/08 12:57:14;;;;;;;;;;;4.90;92.80;;;;;;5006640;28;20029;-77
2020/12/08 12:59:39;;;;;;;14.23;10.23;;;5.00;93.00;;;;;;5001936;28;19910;-77
2020/12/08 13:05:08;;;;;;;19.52;14.40;;;4.90;93.00;;;;;;4999951;28;19952;-76
2020/12/08 13:07:34;;;;;;;;;;;4.90;92.90;;;;;;5003350;28;20029;-76
2020/12/08 13:09:59;;;;;;;14.45;10.73;;;5.00;93.00;;;;;;5004606;28;20498;-76
2020/12/08 13:12:25;;;;;;;;;;;5.00;93.00;;;;;;5002826;28;20230;-77
2020/12/08 13:14:50;;;;;;;23.08;14.43;;;5.00;93.10;;;;;;5002267;28;20325;-76
2020/12/08 13:17:16;;;;;;;;;;;5.00;93.00;;;;;;5002478;28;20053;-76
2020/12/08 13:19:42;;;;;;;16.83;11.23;;;4.90;93.00;;;;;;5003872;28;19996;-77
2020/12/08 13:22:07;;;;;;;;;;;4.90;93.00;;;;;;5003813;28;20106;-77